Time;durP1;ratioP1;P1;durP2;ratioP2;P2;SDS_P1;SDS_P2;PMS_P1;PMS_P2;Temp;Humidity;BMP_temperature;BMP_pressure;BME280_temperature;BME280_humidity;BME280_pressure;Samples;Min_cycle;Max_cycle;Signal;HPM_P1;HPM_P2
2023/09/13 00:01:34;;;;;;;7.70;2.85;;;18.70;90.40;;;;;;4956848;28;20398;-75
2023/09/13 00:04:00;;;;;;;9.43;2.80;;;18.60;90.40;;;;;;4956345;28;20430;-75
2023/09/13 00:06:25;;;;;;;9.60;2.88;;;18.60;90.40;;;;;;4956824;28;20047;-75
2023/09/13 00:08:51;;;;;;;5.82;2.65;;;18.60;90.30;;;;;;4940736;28;20094;-75
2023/09/13 00:11:17;;;;;;;12.07;2.70;;;18.60;90.20;;;;;;4956461;28;20049;-75
2023/09/13 00:13:44;;;;;;;10.32;3.05;;;18.60;90.10;;;;;;4940933;28;20039;-75
2023/09/13 00:16:11;;;;;;;8.95;2.55;;;18.60;90.10;;;;;;4956245;28;20450;-75
2023/09/13 00:18:37;;;;;;;8.23;2.53;;;18.60;90.00;;;;;;4952930;29;20054;-75
2023/09/13 00:21:03;;;;;;;10.48;2.50;;;18.60;90.00;;;;;;4953136;29;20106;-77
2023/09/13 00:23:28;;;;;;;8.10;3.65;;;18.50;89.90;;;;;;4921442;29;20120;-75
2023/09/13 00:25:54;;;;;;;8.30;2.38;;;18.50;89.90;;;;;;4937470;29;20051;-75
2023/09/13 00:28:20;;;;;;;7.40;2.45;;;18.50;89.90;;;;;;4937246;29;20480;-75
2023/09/13 00:30:45;;;;;;;9.63;3.28;;;18.50;89.70;;;;;;4953130;29;20047;-76
2023/09/13 00:33:11;;;;;;;9.63;2.28;;;18.50;89.80;;;;;;4954379;28;20043;-76
2023/09/13 00:35:37;;;;;;;11.02;2.58;;;18.50;89.70;;;;;;4956365;28;20039;-76
2023/09/13 00:38:03;;;;;;;9.15;2.80;;;18.50;89.80;;;;;;4940850;29;20043;-75
2023/09/13 00:40:28;;;;;;;6.82;2.28;;;18.50;89.80;;;;;;4940778;29;20519;-75
2023/09/13 00:42:54;;;;;;;11.98;3.63;;;18.50;89.70;;;;;;4956392;29;20051;-76
2023/09/13 00:45:20;;;;;;;11.07;2.97;;;18.50;89.70;;;;;;4956380;28;20083;-76
2023/09/13 00:47:47;;;;;;;10.68;2.40;;;18.50;89.70;;;;;;4940518;29;20050;-77
2023/09/13 00:50:16;;;;;;;10.48;2.70;;;18.40;89.70;;;;;;4956303;29;20077;-76
2023/09/13 00:52:43;;;;;;;8.88;2.67;;;18.40;89.70;;;;;;4956555;29;20043;-76
2023/09/13 00:55:10;;;;;;;6.10;2.20;;;18.40;89.70;;;;;;4956110;28;20051;-76
2023/09/13 00:57:36;;;;;;;8.00;2.80;;;18.30;89.80;;;;;;4956019;29;20043;-76
2023/09/13 01:00:12;;;;;;;12.93;3.00;;;18.30;89.80;;;;;;4956271;29;20086;-77
2023/09/13 01:02:44;;;;;;;9.40;2.83;;;18.30;89.70;;;;;;4941447;29;20051;-75
2023/09/13 01:05:13;;;;;;;7.10;2.67;;;18.30;89.70;;;;;;4956343;28;20035;-76
2023/09/13 01:07:42;;;;;;;10.43;3.00;;;18.20;89.90;;;;;;4956310;29;20065;-76
2023/09/13 01:10:10;;;;;;;12.55;2.80;;;18.20;89.90;;;;;;4955880;29;20122;-76
2023/09/13 01:12:35;;;;;;;8.88;2.78;;;18.20;89.90;;;;;;4955924;29;20047;-76
2023/09/13 01:15:06;;;;;;;13.73;3.40;;;18.20;89.80;;;;;;4939912;29;20094;-76
2023/09/13 01:17:56;;;;;;;8.93;2.88;;;18.20;89.60;;;;;;4939848;29;20487;-77
2023/09/13 01:20:48;;;;;;;7.43;2.83;;;18.20;89.70;;;;;;4939463;29;20059;-76
2023/09/13 01:23:32;;;;;;;10.63;2.72;;;18.20;89.80;;;;;;4955627;29;20043;-76
2023/09/13 01:26:31;;;;;;;7.53;2.60;;;18.10;89.60;;;;;;4955743;28;20534;-76
2023/09/13 01:28:59;;;;;;;8.27;2.80;;;18.10;89.50;;;;;;4955647;29;20035;-75
2023/09/13 01:31:27;;;;;;;6.63;2.00;;;18.10;89.20;;;;;;4955525;29;20078;-76
2023/09/13 01:33:53;;;;;;;7.10;1.92;;;18.10;89.20;;;;;;4955907;29;20046;-76
2023/09/13 01:36:19;;;;;;;5.75;2.13;;;18.10;88.90;;;;;;4955438;28;20408;-76
2023/09/13 01:38:45;;;;;;;8.25;1.90;;;18.10;88.70;;;;;;4955706;29;20074;-76
2023/09/13 01:41:20;;;;;;;4.57;2.00;;;18.10;88.70;;;;;;4939440;29;20051;-76
2023/09/13 01:43:47;;;;;;;5.53;1.80;;;18.10;88.60;;;;;;4939207;29;20073;-75
2023/09/13 01:46:13;;;;;;;4.30;1.48;;;18.10;88.50;;;;;;4955508;28;20047;-75
2023/09/13 01:48:39;;;;;;;7.88;1.90;;;18.00;87.80;;;;;;4939319;29;20407;-76
2023/09/13 01:51:06;;;;;;;6.25;2.00;;;18.00;88.20;;;;;;4955184;29;20118;-75
2023/09/13 01:53:31;;;;;;;4.97;2.03;;;18.00;87.90;;;;;;4955112;29;20487;-76
2023/09/13 01:55:57;;;;;;;9.90;2.20;;;18.00;88.00;;;;;;4939091;29;20122;-77
2023/09/13 01:58:23;;;;;;;7.60;1.60;;;18.00;87.80;;;;;;4955149;29;20039;-75
2023/09/13 02:00:49;;;;;;;5.25;1.95;;;18.00;87.70;;;;;;4939165;29;20057;-76
2023/09/13 02:03:14;;;;;;;5.43;1.60;;;18.00;87.70;;;;;;4954999;29;20118;-76
2023/09/13 02:05:40;;;;;;;5.57;1.77;;;18.00;87.20;;;;;;4923122;29;20047;-75
2023/09/13 02:08:06;;;;;;;5.60;1.60;;;18.00;87.40;;;;;;4955341;29;20074;-75
2023/09/13 02:10:32;;;;;;;8.43;2.15;;;18.00;87.20;;;;;;4954861;29;20492;-76
2023/09/13 02:13:00;;;;;;;3.42;1.52;;;18.00;87.10;;;;;;4954845;29;20098;-76
2023/09/13 02:15:27;;;;;;;6.65;1.80;;;18.00;87.10;;;;;;4954907;28;20432;-75
2023/09/13 02:17:52;;;;;;;8.98;2.22;;;18.00;87.30;;;;;;4922972;29;20039;-76
2023/09/13 02:20:18;;;;;;;5.60;1.73;;;18.00;87.30;;;;;;4938742;29;20051;-76
2023/09/13 02:22:44;;;;;;;6.53;2.20;;;18.00;87.40;;;;;;4954692;29;20062;-76
2023/09/13 02:25:10;;;;;;;9.13;2.40;;;18.00;87.40;;;;;;4938678;29;20039;-76
2023/09/13 02:27:35;;;;;;;9.13;2.42;;;18.00;87.50;;;;;;4938660;29;20098;-76
2023/09/13 02:30:04;;;;;;;8.57;2.05;;;17.90;88.10;;;;;;4938936;29;20058;-77
2023/09/13 02:32:30;;;;;;;6.85;2.25;;;17.80;88.50;;;;;;4954196;29;20051;-76
2023/09/13 02:34:56;;;;;;;7.25;2.40;;;17.80;88.40;;;;;;4954618;28;20408;-75
2023/09/13 02:37:22;;;;;;;6.72;2.08;;;17.80;88.50;;;;;;4954420;29;20043;-76
2023/09/13 02:39:47;;;;;;;8.95;3.03;;;17.80;88.70;;;;;;4938429;29;20082;-76
2023/09/13 02:42:13;;;;;;;5.90;2.10;;;17.80;88.80;;;;;;4954382;29;20043;-76
2023/09/13 02:44:39;;;;;;;6.78;2.53;;;17.70;88.90;;;;;;4954156;28;20054;-76
2023/09/13 02:47:05;;;;;;;8.65;2.38;;;17.80;89.00;;;;;;4938252;29;20347;-76
2023/09/13 02:49:32;;;;;;;7.80;2.35;;;17.70;89.00;;;;;;4954190;29;20116;-75
2023/09/13 02:51:58;;;;;;;10.65;2.38;;;17.80;89.10;;;;;;4938041;29;20511;-76
2023/09/13 02:54:24;;;;;;;9.73;2.83;;;17.70;89.10;;;;;;4922346;29;20043;-75
2023/09/13 02:56:50;;;;;;;5.65;2.17;;;17.80;89.20;;;;;;4953585;28;20035;-76
2023/09/13 02:59:16;;;;;;;8.50;2.65;;;17.80;89.20;;;;;;4954692;29;20431;-76
2023/09/13 03:01:42;;;;;;;12.90;3.00;;;17.90;89.30;;;;;;4938102;29;20039;-76
2023/09/13 03:04:08;;;;;;;15.48;3.20;;;17.90;89.20;;;;;;4954135;28;20043;-77
2023/09/13 03:06:34;;;;;;;6.10;2.63;;;17.80;89.20;;;;;;4938196;29;20046;-76
2023/09/13 03:09:00;;;;;;;10.82;2.97;;;17.70;89.40;;;;;;4938046;29;20114;-76
2023/09/13 03:11:25;;;;;;;8.35;2.92;;;17.60;89.60;;;;;;4954104;29;20043;-76
2023/09/13 03:13:51;;;;;;;7.20;2.78;;;17.60;89.80;;;;;;4937752;29;20039;-77
2023/09/13 03:16:19;;;;;;;7.18;2.75;;;17.60;89.80;;;;;;4937786;29;20047;-77
2023/09/13 03:18:47;;;;;;;9.02;2.95;;;17.50;89.90;;;;;;4955667;28;20406;-77
2023/09/13 03:21:13;;;;;;;6.25;2.30;;;17.50;90.30;;;;;;4957029;28;20050;-77
2023/09/13 03:23:43;;;;;;;7.75;2.83;;;17.40;90.50;;;;;;4957305;28;20210;-77
2023/09/13 03:26:23;;;;;;;7.47;2.40;;;17.30;90.50;;;;;;4957227;28;20141;-77
2023/09/13 03:28:51;;;;;;;8.20;2.88;;;17.30;90.60;;;;;;4941029;28;20054;-76
2023/09/13 03:31:20;;;;;;;6.35;2.55;;;17.20;90.70;;;;;;4956819;28;20045;-77
2023/09/13 03:33:47;;;;;;;7.57;2.97;;;17.10;90.90;;;;;;4956988;28;20047;-77
2023/09/13 03:36:14;;;;;;;8.18;2.47;;;17.00;91.10;;;;;;4956891;28;20043;-77
2023/09/13 03:38:41;;;;;;;5.65;2.45;;;17.00;91.10;;;;;;4956854;28;20507;-77
2023/09/13 03:41:08;;;;;;;7.43;3.08;;;16.90;91.40;;;;;;4957061;28;20092;-77
2023/09/13 03:43:34;;;;;;;9.27;2.97;;;16.90;91.70;;;;;;4956795;28;20051;-78
2023/09/13 03:46:01;;;;;;;7.72;2.88;;;16.90;91.70;;;;;;4956708;28;20101;-79
2023/09/13 03:48:32;;;;;;;7.45;2.33;;;16.90;91.60;;;;;;4956697;28;20491;-78
2023/09/13 03:50:58;;;;;;;4.03;2.30;;;16.90;91.80;;;;;;4956896;28;20053;-78
2023/09/13 03:53:25;;;;;;;6.45;2.25;;;16.90;91.80;;;;;;4940977;28;20391;-78
2023/09/13 03:55:51;;;;;;;9.77;2.42;;;16.90;91.90;;;;;;4956691;28;20045;-78
2023/09/13 03:58:18;;;;;;;4.30;1.77;;;16.90;91.60;;;;;;4940829;28;20121;-78
2023/09/13 04:00:44;;;;;;;5.93;2.17;;;16.90;91.60;;;;;;4956700;28;20288;-78
2023/09/13 04:03:09;;;;;;;4.53;1.98;;;16.80;91.70;;;;;;4940769;28;20053;-78
2023/09/13 04:05:35;;;;;;;5.95;2.15;;;16.80;91.80;;;;;;4956422;28;20138;-78
2023/09/13 04:08:01;;;;;;;6.25;1.73;;;16.80;91.80;;;;;;4943255;28;20047;-77
2023/09/13 04:10:27;;;;;;;5.63;2.05;;;16.90;92.00;;;;;;4960278;28;20045;-78
2023/09/13 04:12:53;;;;;;;5.68;1.90;;;16.80;91.80;;;;;;4960200;28;20043;-78
2023/09/13 04:15:19;;;;;;;6.90;1.95;;;16.80;91.80;;;;;;4944424;28;20134;-78
2023/09/13 04:17:45;;;;;;;7.85;1.85;;;16.80;91.60;;;;;;4944161;28;20046;-78
2023/09/13 04:20:11;;;;;;;5.88;2.20;;;16.80;91.70;;;;;;4944049;28;20046;-77
2023/09/13 04:22:36;;;;;;;6.65;2.05;;;16.70;91.70;;;;;;4960433;28;20042;-78
2023/09/13 04:25:04;;;;;;;5.60;2.10;;;16.70;91.70;;;;;;4960283;28;20455;-77
2023/09/13 04:27:30;;;;;;;8.57;3.03;;;16.70;91.90;;;;;;4960043;28;20085;-78
2023/09/13 04:29:56;;;;;;;8.48;2.53;;;16.60;91.80;;;;;;4959919;28;20078;-78
2023/09/13 04:32:23;;;;;;;7.50;2.10;;;16.60;91.80;;;;;;4943843;28;20039;-79
2023/09/13 04:34:50;;;;;;;8.32;2.42;;;16.60;91.90;;;;;;4960028;28;20053;-78
2023/09/13 04:37:15;;;;;;;8.35;2.45;;;16.60;91.80;;;;;;4960086;28;20130;-78
2023/09/13 04:39:41;;;;;;;7.88;3.88;;;16.60;91.80;;;;;;4959845;28;20506;-78
2023/09/13 04:42:07;;;;;;;10.80;2.92;;;16.60;91.60;;;;;;4959716;28;20050;-78
2023/09/13 04:44:33;;;;;;;12.65;3.05;;;16.50;91.40;;;;;;4959936;28;20047;-78
2023/09/13 04:47:02;;;;;;;7.13;2.63;;;16.50;91.60;;;;;;4943710;28;20053;-78
2023/09/13 04:49:28;;;;;;;9.70;3.10;;;16.40;91.40;;;;;;4928509;28;20394;-78
2023/09/13 04:51:55;;;;;;;8.68;2.95;;;16.30;91.50;;;;;;4959553;28;20038;-78
2023/09/13 04:54:22;;;;;;;9.55;3.10;;;16.30;91.50;;;;;;4943579;28;20132;-79
2023/09/13 04:56:51;;;;;;;10.20;4.00;;;16.20;91.70;;;;;;4959780;28;20148;-78
2023/09/13 04:59:17;;;;;;;7.38;2.95;;;16.30;91.60;;;;;;4959787;28;20089;-78
2023/09/13 05:01:44;;;;;;;12.75;3.13;;;16.20;91.00;;;;;;4943700;28;20543;-78
2023/09/13 05:04:10;;;;;;;8.93;2.78;;;16.10;90.80;;;;;;4959226;28;20522;-77
2023/09/13 05:06:36;;;;;;;12.57;3.53;;;16.00;90.90;;;;;;4959211;28;20049;-78
2023/09/13 05:09:04;;;;;;;10.68;2.95;;;15.90;91.10;;;;;;4959542;28;20129;-78
2023/09/13 05:11:29;;;;;;;15.15;3.80;;;15.90;91.30;;;;;;4959247;28;20086;-78
2023/09/13 05:14:28;;;;;;;14.15;3.67;;;15.80;91.40;;;;;;4959296;28;20049;-78
2023/09/13 05:16:53;;;;;;;14.55;3.70;;;15.80;90.80;;;;;;4891503;28;20439;-77
2023/09/13 05:19:19;;;;;;;10.93;3.22;;;15.70;90.80;;;;;;4957731;28;20078;-78
2023/09/13 05:21:45;;;;;;;7.35;3.00;;;15.60;90.90;;;;;;4959073;28;20446;-78
2023/09/13 05:24:11;;;;;;;12.95;3.05;;;15.50;90.70;;;;;;4958689;28;20098;-77
2023/09/13 05:26:37;;;;;;;12.70;3.92;;;15.50;90.90;;;;;;4958487;28;20432;-77
2023/09/13 05:29:03;;;;;;;14.38;3.88;;;15.50;90.70;;;;;;4943148;28;20399;-78
2023/09/13 05:31:29;;;;;;;13.73;4.00;;;15.40;91.10;;;;;;4958794;28;20129;-76
2023/09/13 05:33:55;;;;;;;8.25;3.58;;;15.50;90.80;;;;;;4959012;28;20125;-78
2023/09/13 05:36:20;;;;;;;11.55;4.50;;;15.40;91.20;;;;;;4943134;28;20050;-79
2023/09/13 05:38:49;;;;;;;8.85;4.20;;;15.40;91.30;;;;;;4958768;28;20045;-78
2023/09/13 05:41:15;;;;;;;14.52;4.75;;;15.40;91.50;;;;;;4958996;28;20403;-76
2023/09/13 05:43:42;;;;;;;9.60;4.03;;;15.40;91.80;;;;;;4958592;28;20067;-77
2023/09/13 05:46:08;;;;;;;13.60;4.45;;;15.40;91.70;;;;;;4958569;28;20058;-77
2023/09/13 05:48:34;;;;;;;12.38;3.50;;;15.40;92.10;;;;;;4958599;28;20053;-77
2023/09/13 05:51:00;;;;;;;11.50;3.08;;;15.40;92.10;;;;;;4958710;28;20043;-76
2023/09/13 05:53:26;;;;;;;8.52;2.88;;;15.50;92.30;;;;;;4942098;28;20510;-77
2023/09/13 05:55:52;;;;;;;12.75;3.08;;;15.50;92.40;;;;;;4957831;28;20078;-77
2023/09/13 05:58:18;;;;;;;10.90;3.10;;;15.50;92.10;;;;;;4980455;28;20038;-76
2023/09/13 06:00:49;;;;;;;9.63;2.95;;;15.50;92.20;;;;;;4942100;28;20090;-78
2023/09/13 06:03:19;;;;;;;9.60;3.30;;;15.60;92.20;;;;;;4957891;28;20077;-78
2023/09/13 06:05:49;;;;;;;7.95;2.40;;;15.50;92.50;;;;;;4957867;28;20058;-77
2023/09/13 06:08:15;;;;;;;6.80;2.67;;;15.60;92.20;;;;;;4964105;28;20051;-78
2023/09/13 06:10:41;;;;;;;4.85;2.20;;;15.60;92.30;;;;;;4984609;28;20085;-77
2023/09/13 06:13:07;;;;;;;6.70;2.47;;;15.60;92.10;;;;;;4941809;28;20042;-76
2023/09/13 06:15:33;;;;;;;8.07;2.55;;;15.60;91.60;;;;;;4957156;28;20046;-77
2023/09/13 06:17:59;;;;;;;8.57;2.72;;;15.60;91.50;;;;;;4980076;28;20046;-77
2023/09/13 06:20:24;;;;;;;9.40;2.15;;;15.60;91.40;;;;;;4957296;28;20123;-77
2023/09/13 06:22:50;;;;;;;8.05;2.50;;;15.60;91.60;;;;;;4955162;28;20115;-77
2023/09/13 06:25:17;;;;;;;12.65;3.67;;;15.70;91.40;;;;;;4942118;28;20101;-76
2023/09/13 06:27:46;;;;;;;8.32;2.15;;;15.70;91.40;;;;;;4958108;28;20051;-77
2023/09/13 06:30:15;;;;;;;6.22;2.20;;;15.60;91.60;;;;;;4957052;28;20054;-77
2023/09/13 06:32:41;;;;;;;9.40;2.65;;;15.60;91.40;;;;;;4957582;28;20522;-76
2023/09/13 06:35:11;;;;;;;7.90;2.78;;;15.60;91.30;;;;;;4957829;28;20122;-77
2023/09/13 06:37:36;;;;;;;8.02;2.75;;;15.60;91.30;;;;;;4942014;28;20035;-76
2023/09/13 06:40:03;;;;;;;8.27;2.40;;;15.60;91.20;;;;;;4957733;28;20375;-76
2023/09/13 06:42:29;;;;;;;9.30;2.60;;;15.70;91.30;;;;;;4925809;28;20080;-76
2023/09/13 06:44:55;;;;;;;9.88;3.45;;;15.60;91.00;;;;;;4944837;28;20042;-76
2023/09/13 06:47:20;;;;;;;7.88;2.10;;;15.60;91.10;;;;;;4977307;28;20053;-76
2023/09/13 06:49:46;;;;;;;8.93;2.63;;;15.70;91.20;;;;;;4945307;28;20045;-77
2023/09/13 06:52:12;;;;;;;9.77;2.50;;;15.70;91.10;;;;;;4977379;28;20046;-77
2023/09/13 06:54:38;;;;;;;7.70;2.45;;;15.70;91.20;;;;;;4961313;28;20100;-76
2023/09/13 06:57:05;;;;;;;5.88;2.22;;;15.70;91.40;;;;;;4977159;28;20398;-76
2023/09/13 06:59:32;;;;;;;6.70;1.50;;;15.80;91.40;;;;;;4976938;28;20125;-77
2023/09/13 07:01:58;;;;;;;5.70;1.83;;;15.80;91.30;;;;;;4977420;28;20077;-77
2023/09/13 07:04:24;;;;;;;9.18;1.60;;;15.80;91.30;;;;;;4976945;28;20046;-77
2023/09/13 07:06:50;;;;;;;5.85;1.15;;;15.80;91.30;;;;;;4977257;28;20096;-77
2023/09/13 07:09:16;;;;;;;6.10;1.45;;;15.80;91.20;;;;;;4976726;28;20437;-76
2023/09/13 07:11:41;;;;;;;9.63;2.20;;;15.80;91.10;;;;;;4976582;28;20074;-79
2023/09/13 07:14:07;;;;;;;8.52;1.67;;;15.80;91.10;;;;;;4976724;28;20129;-78
2023/09/13 07:16:33;;;;;;;4.63;1.83;;;15.80;91.20;;;;;;4976998;28;20046;-76
2023/09/13 07:18:58;;;;;;;6.25;1.70;;;15.80;91.40;;;;;;4976896;28;20049;-77
2023/09/13 07:21:24;;;;;;;6.63;1.20;;;15.90;91.30;;;;;;4960574;28;20065;-76
2023/09/13 07:23:51;;;;;;;5.57;1.35;;;16.00;91.20;;;;;;4976740;28;20048;-77
2023/09/13 07:26:16;;;;;;;5.53;2.58;;;16.00;90.90;;;;;;4960924;28;20173;-77
2023/09/13 07:28:42;;;;;;;4.97;1.55;;;16.20;90.60;;;;;;4960784;28;20125;-78
2023/09/13 07:31:08;;;;;;;6.47;1.40;;;16.20;90.40;;;;;;4976604;28;20073;-76
2023/09/13 07:33:34;;;;;;;4.97;1.15;;;16.20;90.30;;;;;;4961032;28;20498;-76
2023/09/13 07:36:00;;;;;;;5.35;1.40;;;16.30;90.00;;;;;;4976552;28;20125;-77
2023/09/13 07:38:26;;;;;;;6.13;1.92;;;16.30;89.90;;;;;;4960630;28;20043;-76
2023/09/13 07:40:51;;;;;;;3.53;1.40;;;16.30;90.00;;;;;;4960527;28;20124;-76
2023/09/13 07:43:17;;;;;;;5.43;1.50;;;16.40;90.00;;;;;;4979906;28;20046;-76
2023/09/13 07:45:43;;;;;;;8.18;2.42;;;16.40;90.00;;;;;;4964856;28;20438;-76
2023/09/13 07:48:09;;;;;;;6.30;1.83;;;16.50;90.00;;;;;;4980622;28;20081;-76
2023/09/13 07:50:40;;;;;;;6.30;1.77;;;16.50;89.90;;;;;;4980384;28;20042;-78
2023/09/13 07:53:12;;;;;;;6.43;1.58;;;16.50;89.90;;;;;;4980589;28;20046;-77
2023/09/13 07:55:39;;;;;;;6.43;2.35;;;16.50;90.00;;;;;;4949124;28;20050;-77
2023/09/13 07:58:06;;;;;;;5.45;2.00;;;16.60;89.90;;;;;;4964106;28;20035;-76
2023/09/13 08:00:32;;;;;;;8.93;2.10;;;16.70;89.80;;;;;;4980505;28;20372;-79
2023/09/13 08:02:59;;;;;;;10.20;2.60;;;16.80;89.40;;;;;;4980254;28;20390;-77
2023/09/13 08:05:25;;;;;;;9.50;2.55;;;16.90;89.10;;;;;;4980068;28;20073;-77
2023/09/13 08:07:53;;;;;;;11.07;2.85;;;16.90;89.00;;;;;;4980293;28;20431;-76
2023/09/13 08:10:18;;;;;;;14.75;4.10;;;16.90;88.90;;;;;;4980032;28;20081;-76
2023/09/13 08:12:44;;;;;;;14.73;3.63;;;16.80;88.70;;;;;;4979851;28;20073;-78
2023/09/13 08:15:10;;;;;;;11.50;3.70;;;16.70;88.70;;;;;;4979836;28;20410;-78
2023/09/13 08:17:36;;;;;;;10.40;3.40;;;16.60;89.00;;;;;;4961188;28;20046;-77
2023/09/13 08:20:05;;;;;;;10.90;4.43;;;16.50;89.10;;;;;;4951700;28;20419;-79
2023/09/13 08:22:31;;;;;;;11.48;3.28;;;16.50;88.90;;;;;;4984383;28;20403;-78
2023/09/13 08:24:56;;;;;;;11.23;3.30;;;16.50;89.00;;;;;;4991241;28;20038;-78
2023/09/13 08:27:22;;;;;;;10.80;3.40;;;16.50;88.90;;;;;;4944486;28;20039;-78
2023/09/13 08:29:48;;;;;;;9.93;3.25;;;16.40;88.50;;;;;;4960593;28;20081;-77
2023/09/13 08:32:14;;;;;;;6.57;2.75;;;16.30;88.60;;;;;;4944083;28;20078;-77
2023/09/13 08:34:40;;;;;;;11.52;3.25;;;16.30;88.60;;;;;;4960099;28;20042;-77
2023/09/13 08:37:06;;;;;;;13.43;3.40;;;16.40;88.80;;;;;;4943920;28;20407;-77
2023/09/13 08:39:32;;;;;;;10.82;3.42;;;16.40;88.70;;;;;;4960476;28;20039;-76
2023/09/13 08:41:58;;;;;;;5.28;2.80;;;16.40;89.00;;;;;;4985270;28;20410;-76
2023/09/13 08:44:26;;;;;;;15.32;4.00;;;16.60;88.80;;;;;;4976354;28;20046;-77
2023/09/13 08:46:57;;;;;;;15.00;3.25;;;16.60;88.20;;;;;;4944175;28;20043;-81
2023/09/13 08:49:23;;;;;;;10.60;3.40;;;16.70;87.90;;;;;;4944695;28;20089;-79
2023/09/13 08:51:52;;;;;;;9.02;2.92;;;16.70;87.50;;;;;;4992579;28;20058;-78
2023/09/13 08:54:18;;;;;;;9.07;2.88;;;16.80;87.60;;;;;;4991041;28;20042;-77
2023/09/13 08:56:45;;;;;;;7.63;2.83;;;16.80;87.20;;;;;;4959465;28;20035;-78
2023/09/13 08:59:16;;;;;;;10.85;3.17;;;16.70;87.30;;;;;;4986606;28;20124;-78
2023/09/13 09:01:50;;;;;;;10.73;3.13;;;16.60;87.30;;;;;;4959257;28;20586;-78
2023/09/13 09:04:20;;;;;;;8.93;3.15;;;16.40;87.70;;;;;;4959479;28;20035;-79
2023/09/13 09:06:46;;;;;;;14.95;3.78;;;16.40;88.20;;;;;;4964890;28;20099;-79
2023/09/13 09:09:15;;;;;;;7.47;3.20;;;16.20;88.40;;;;;;4959555;28;20038;-78
2023/09/13 09:11:43;;;;;;;8.27;3.10;;;16.10;88.60;;;;;;4944080;28;20046;-79
2023/09/13 09:14:11;;;;;;;8.93;3.70;;;16.10;88.50;;;;;;4975243;28;20141;-78
2023/09/13 09:16:38;;;;;;;7.75;3.33;;;16.10;88.40;;;;;;4943697;28;20049;-79
2023/09/13 09:19:05;;;;;;;8.63;3.47;;;16.20;88.40;;;;;;4991974;28;20031;-78
2023/09/13 09:21:33;;;;;;;7.20;3.22;;;16.30;88.40;;;;;;4959147;28;20055;-78
2023/09/13 09:23:59;;;;;;;7.55;2.97;;;16.40;88.00;;;;;;4991816;28;20046;-78
2023/09/13 09:26:25;;;;;;;6.10;3.28;;;16.50;88.10;;;;;;4959551;28;20133;-79
2023/09/13 09:28:51;;;;;;;5.75;3.25;;;16.70;87.80;;;;;;4991562;28;20133;-79
2023/09/13 09:31:17;;;;;;;6.32;2.80;;;16.80;87.20;;;;;;4942720;28;20116;-78
2023/09/13 09:33:43;;;;;;;9.43;2.33;;;17.00;86.70;;;;;;4942233;28;20043;-78
2023/09/13 09:36:13;;;;;;;4.70;2.67;;;17.10;86.30;;;;;;4957857;28;20050;-77
2023/09/13 09:38:43;;;;;;;7.47;3.28;;;17.10;85.30;;;;;;4958512;28;20047;-78
2023/09/13 09:41:09;;;;;;;7.95;3.38;;;17.20;84.40;;;;;;4958553;28;20046;-78
2023/09/13 09:43:36;;;;;;;6.95;3.10;;;17.20;84.30;;;;;;4958646;28;20050;-78
2023/09/13 09:46:02;;;;;;;6.90;3.45;;;17.30;84.50;;;;;;4958505;28;20493;-78
2023/09/13 09:48:28;;;;;;;9.75;4.32;;;17.40;84.80;;;;;;4959101;28;20436;-78
2023/09/13 09:50:55;;;;;;;6.32;3.60;;;17.40;84.30;;;;;;4958288;28;20046;-77
2023/09/13 09:53:22;;;;;;;8.48;4.57;;;17.40;83.70;;;;;;4958733;28;20038;-78
2023/09/13 09:55:50;;;;;;;5.60;3.28;;;17.30;83.00;;;;;;4958393;28;20177;-77
2023/09/13 09:58:17;;;;;;;6.43;4.18;;;17.30;83.20;;;;;;4958588;28;20047;-77
2023/09/13 10:00:48;;;;;;;5.20;3.17;;;17.50;82.90;;;;;;4958451;28;20042;-77
2023/09/13 10:03:17;;;;;;;6.55;4.00;;;17.70;82.50;;;;;;4958513;28;20420;-77
2023/09/13 10:06:07;;;;;;;6.20;3.35;;;17.90;81.40;;;;;;4958027;28;20046;-77
2023/09/13 10:08:43;;;;;;;6.57;3.28;;;18.10;79.20;;;;;;4958107;28;20041;-76
2023/09/13 10:11:13;;;;;;;7.35;3.42;;;18.30;78.10;;;;;;4957931;28;20046;-77
2023/09/13 10:13:40;;;;;;;9.82;3.70;;;18.40;77.80;;;;;;4942346;28;20061;-78
2023/09/13 10:16:08;;;;;;;6.57;3.50;;;18.60;77.30;;;;;;4958224;28;20062;-75
2023/09/13 10:18:49;;;;;;;5.82;3.20;;;18.70;75.80;;;;;;4958015;28;20041;-75
2023/09/13 10:21:32;;;;;;;9.60;3.08;;;18.90;75.20;;;;;;4957751;28;20068;-77
2023/09/13 10:24:06;;;;;;;7.70;2.70;;;19.00;74.60;;;;;;4957970;28;20055;-77
2023/09/13 10:26:33;;;;;;;6.65;2.67;;;18.90;74.30;;;;;;4958056;28;20131;-75
2023/09/13 10:29:11;;;;;;;8.93;3.35;;;19.00;74.30;;;;;;4957738;28;20082;-77
2023/09/13 10:31:43;;;;;;;5.90;2.95;;;19.00;73.70;;;;;;4957643;28;20475;-78
2023/09/13 10:34:16;;;;;;;6.65;2.50;;;19.00;73.70;;;;;;4958251;28;20494;-77
2023/09/13 10:36:47;;;;;;;6.85;2.88;;;19.10;73.90;;;;;;4957999;28;20081;-77
2023/09/13 10:39:30;;;;;;;9.55;2.90;;;19.20;73.40;;;;;;4957685;28;20053;-76
2023/09/13 10:42:10;;;;;;;6.20;2.78;;;19.30;73.30;;;;;;4957500;28;20129;-76
2023/09/13 10:44:37;;;;;;;7.50;2.50;;;19.50;74.10;;;;;;4974750;28;20047;-76
2023/09/13 10:47:07;;;;;;;9.02;2.70;;;19.80;72.70;;;;;;4957290;28;20121;-76
2023/09/13 10:49:37;;;;;;;9.52;2.83;;;20.00;71.70;;;;;;4957463;28;20117;-77
2023/09/13 10:52:05;;;;;;;7.53;2.42;;;20.20;71.20;;;;;;4957192;28;20514;-77
2023/09/13 10:54:31;;;;;;;6.28;2.28;;;20.30;70.90;;;;;;4957291;28;20125;-77
2023/09/13 10:56:58;;;;;;;9.52;2.85;;;20.60;71.00;;;;;;4957442;28;20133;-76
2023/09/13 10:59:27;;;;;;;8.88;2.90;;;20.70;70.20;;;;;;4957094;28;20516;-77
2023/09/13 11:01:53;;;;;;;5.90;2.40;;;20.90;70.30;;;;;;4941118;28;20547;-77
2023/09/13 11:04:26;;;;;;;7.72;2.50;;;21.00;70.50;;;;;;4957466;28;20189;-75
2023/09/13 11:06:53;;;;;;;6.77;2.20;;;21.00;68.50;;;;;;4957355;28;20042;-75
2023/09/13 11:09:30;;;;;;;5.93;2.30;;;20.90;66.70;;;;;;4957342;28;20446;-75
2023/09/13 11:11:57;;;;;;;10.07;2.33;;;20.80;67.60;;;;;;4957043;28;20528;-75
2023/09/13 11:14:28;;;;;;;8.73;2.53;;;20.50;67.80;;;;;;4957054;28;20054;-75
2023/09/13 11:16:55;;;;;;;5.13;2.35;;;20.30;68.00;;;;;;4956738;28;20047;-75
2023/09/13 11:19:27;;;;;;;7.65;1.92;;;20.20;68.50;;;;;;4956790;28;20142;-75
2023/09/13 11:22:00;;;;;;;6.93;2.30;;;20.10;68.30;;;;;;4956921;28;20513;-74
2023/09/13 11:24:43;;;;;;;7.47;2.22;;;20.10;68.30;;;;;;4957004;28;20126;-75
2023/09/13 11:27:20;;;;;;;5.10;2.30;;;19.90;67.70;;;;;;4956924;28;20133;-74
2023/09/13 11:29:51;;;;;;;4.95;2.13;;;19.80;69.00;;;;;;4957143;28;20046;-75
2023/09/13 11:32:19;;;;;;;4.13;1.90;;;19.80;69.80;;;;;;4956153;28;20446;-75
2023/09/13 11:34:52;;;;;;;4.97;2.17;;;19.90;70.10;;;;;;4955626;28;20092;-75
2023/09/13 11:37:18;;;;;;;6.25;2.15;;;20.10;70.10;;;;;;4941008;28;20043;-75
2023/09/13 11:39:52;;;;;;;6.35;2.40;;;20.40;69.70;;;;;;4955610;28;20097;-75
2023/09/13 11:42:27;;;;;;;6.13;2.10;;;20.70;68.20;;;;;;4956794;28;20046;-75
2023/09/13 11:44:57;;;;;;;6.40;2.60;;;21.00;67.70;;;;;;4957066;28;20550;-75
2023/09/13 11:47:23;;;;;;;6.13;2.15;;;21.30;67.80;;;;;;4957071;28;20049;-75
2023/09/13 11:49:53;;;;;;;6.13;2.55;;;21.50;67.20;;;;;;4941055;28;20398;-76
2023/09/13 11:52:19;;;;;;;5.00;2.00;;;21.80;66.90;;;;;;4956619;28;20051;-75
2023/09/13 11:54:57;;;;;;;9.80;2.00;;;22.10;65.60;;;;;;4956238;28;20053;-75
2023/09/13 11:57:23;;;;;;;9.55;2.45;;;22.00;64.30;;;;;;4955124;28;20117;-75
2023/09/13 12:00:03;;;;;;;6.75;2.25;;;22.10;64.50;;;;;;4956547;28;20118;-75
2023/09/13 12:02:30;;;;;;;7.20;1.95;;;21.90;64.80;;;;;;4980745;28;20068;-75
2023/09/13 12:04:55;;;;;;;9.80;3.05;;;21.70;65.00;;;;;;4964431;28;20077;-75
2023/09/13 12:07:30;;;;;;;8.40;1.80;;;21.20;66.40;;;;;;4956036;28;20066;-75
2023/09/13 12:09:57;;;;;;;3.90;1.52;;;21.00;67.70;;;;;;4970463;28;20153;-75
2023/09/13 12:12:23;;;;;;;6.85;2.30;;;20.80;68.20;;;;;;4955888;28;20125;-75
2023/09/13 12:14:49;;;;;;;5.00;1.73;;;20.90;68.40;;;;;;4961952;28;20093;-75
2023/09/13 12:17:15;;;;;;;9.50;2.08;;;20.80;67.00;;;;;;4940371;28;20049;-75
2023/09/13 12:19:41;;;;;;;8.43;2.10;;;20.70;68.30;;;;;;4924324;28;20047;-75
2023/09/13 12:22:11;;;;;;;5.75;1.50;;;20.70;68.40;;;;;;4956933;28;20051;-75
2023/09/13 12:24:37;;;;;;;3.22;1.52;;;20.60;69.40;;;;;;4956479;28;20487;-75
2023/09/13 12:27:03;;;;;;;2.90;1.80;;;20.50;68.20;;;;;;4956449;28;20050;-79
2023/09/13 12:29:29;;;;;;;5.20;1.30;;;20.40;68.80;;;;;;4942152;28;20113;-78
2023/09/13 12:31:57;;;;;;;4.70;1.40;;;20.20;68.90;;;;;;4943764;28;20457;-78
2023/09/13 12:34:23;;;;;;;4.57;1.75;;;20.40;68.90;;;;;;4944185;28;20368;-78
2023/09/13 12:36:49;;;;;;;4.80;1.33;;;20.60;68.70;;;;;;4959747;28;20042;-78
2023/09/13 12:39:15;;;;;;;4.68;1.60;;;21.00;67.30;;;;;;4960189;28;20042;-78
2023/09/13 12:41:42;;;;;;;6.32;1.80;;;21.30;68.10;;;;;;4943895;28;20403;-78
2023/09/13 12:44:09;;;;;;;4.97;1.58;;;21.30;66.80;;;;;;4959686;28;20423;-79
2023/09/13 12:46:37;;;;;;;9.32;2.38;;;21.20;65.80;;;;;;4943687;28;20496;-77
2023/09/13 12:49:03;;;;;;;5.03;1.60;;;20.90;66.70;;;;;;4959578;28;20054;-77